sensor_id;sensor_type;location;lat;lon;timestamp;P1;durP1;ratioP1;P2;durP2;ratioP2
49450;SDS011;35336;48.400;10.886;2023-05-23T00:00:14;10.03;;;6.57;;
49450;SDS011;35336;48.400;10.886;2023-05-23T00:00:30;7.65;;;6.57;;
49450;SDS011;35336;48.400;10.886;2023-05-23T00:00:45;8.60;;;7.03;;
49450;SDS011;35336;48.400;10.886;2023-05-23T00:01:00;8.20;;;6.80;;
49450;SDS011;35336;48.400;10.886;2023-05-23T00:01:16;7.27;;;6.43;;
49450;SDS011;35336;48.400;10.886;2023-05-23T00:01:31;9.67;;;6.40;;
49450;SDS011;35336;48.400;10.886;2023-05-23T00:01:46;12.10;;;6.07;;
49450;SDS011;35336;48.400;10.886;2023-05-23T00:02:02;10.17;;;6.20;;
49450;SDS011;35336;48.400;10.886;2023-05-23T00:02:17;8.50;;;6.63;;
49450;SDS011;35336;48.400;10.886;2023-05-23T00:02:32;9.82;;;6.85;;
49450;SDS011;35336;48.400;10.886;2023-05-23T00:02:48;9.53;;;6.60;;
49450;SDS011;35336;48.400;10.886;2023-05-23T00:03:03;11.87;;;6.80;;
49450;SDS011;35336;48.400;10.886;2023-05-23T00:03:18;11.40;;;6.35;;
49450;SDS011;35336;48.400;10.886;2023-05-23T00:03:33;9.07;;;6.20;;
49450;SDS011;35336;48.400;10.886;2023-05-23T00:03:50;10.03;;;6.40;;
49450;SDS011;35336;48.400;10.886;2023-05-23T00:04:05;9.93;;;6.20;;
49450;SDS011;35336;48.400;10.886;2023-05-23T00:04:21;11.10;;;6.30;;
49450;SDS011;35336;48.400;10.886;2023-05-23T00:04:36;10.83;;;6.47;;
49450;SDS011;35336;48.400;10.886;2023-05-23T00:04:51;9.98;;;6.60;;
49450;SDS011;35336;48.400;10.886;2023-05-23T00:05:07;8.43;;;6.43;;
49450;SDS011;35336;48.400;10.886;2023-05-23T00:05:22;7.05;;;6.30;;
49450;SDS011;35336;48.400;10.886;2023-05-23T00:05:37;9.17;;;6.70;;
49450;SDS011;35336;48.400;10.886;2023-05-23T00:05:53;8.73;;;6.57;;
49450;SDS011;35336;48.400;10.886;2023-05-23T00:06:08;7.95;;;6.18;;
49450;SDS011;35336;48.400;10.886;2023-05-23T00:06:24;10.50;;;6.60;;
49450;SDS011;35336;48.400;10.886;2023-05-23T00:06:39;9.27;;;6.73;;
49450;SDS011;35336;48.400;10.886;2023-05-23T00:06:54;7.07;;;6.38;;
49450;SDS011;35336;48.400;10.886;2023-05-23T00:07:09;6.70;;;6.00;;
49450;SDS011;35336;48.400;10.886;2023-05-23T00:07:25;9.43;;;6.63;;
49450;SDS011;35336;48.400;10.886;2023-05-23T00:07:40;13.33;;;6.93;;
49450;SDS011;35336;48.400;10.886;2023-05-23T00:07:55;11.07;;;6.63;;
49450;SDS011;35336;48.400;10.886;2023-05-23T00:08:11;8.50;;;6.70;;
49450;SDS011;35336;48.400;10.886;2023-05-23T00:08:26;9.17;;;6.90;;
49450;SDS011;35336;48.400;10.886;2023-05-23T00:08:41;7.97;;;6.40;;
49450;SDS011;35336;48.400;10.886;2023-05-23T00:08:57;7.60;;;6.27;;
49450;SDS011;35336;48.400;10.886;2023-05-23T00:09:15;8.43;;;6.93;;
49450;SDS011;35336;48.400;10.886;2023-05-23T00:09:31;9.88;;;6.90;;
49450;SDS011;35336;48.400;10.886;2023-05-23T00:09:46;8.80;;;6.50;;
49450;SDS011;35336;48.400;10.886;2023-05-23T00:10:01;8.23;;;6.53;;
49450;SDS011;35336;48.400;10.886;2023-05-23T00:10:17;7.10;;;6.40;;
49450;SDS011;35336;48.400;10.886;2023-05-23T00:10:32;7.43;;;6.20;;
49450;SDS011;35336;48.400;10.886;2023-05-23T00:10:47;9.05;;;6.25;;
49450;SDS011;35336;48.400;10.886;2023-05-23T00:11:03;8.77;;;6.40;;
49450;SDS011;35336;48.400;10.886;2023-05-23T00:11:18;7.70;;;6.67;;
49450;SDS011;35336;48.400;10.886;2023-05-23T00:11:34;8.68;;;6.78;;
49450;SDS011;35336;48.400;10.886;2023-05-23T00:11:49;8.47;;;6.47;;
49450;SDS011;35336;48.400;10.886;2023-05-23T00:12:04;9.50;;;6.57;;
49450;SDS011;35336;48.400;10.886;2023-05-23T00:12:20;10.85;;;7.10;;
49450;SDS011;35336;48.400;10.886;2023-05-23T00:12:35;9.93;;;7.30;;
49450;SDS011;35336;48.400;10.886;2023-05-23T00:12:50;10.85;;;7.28;;
49450;SDS011;35336;48.400;10.886;2023-05-23T00:13:06;10.60;;;7.07;;
49450;SDS011;35336;48.400;10.886;2023-05-23T00:13:21;10.63;;;6.90;;
49450;SDS011;35336;48.400;10.886;2023-05-23T00:13:36;11.00;;;6.90;;
49450;SDS011;35336;48.400;10.886;2023-05-23T00:13:52;10.55;;;7.00;;
49450;SDS011;35336;48.400;10.886;2023-05-23T00:14:07;11.48;;;7.30;;
49450;SDS011;35336;48.400;10.886;2023-05-23T00:14:23;9.83;;;6.83;;
49450;SDS011;35336;48.400;10.886;2023-05-23T00:14:39;10.23;;;6.68;;
49450;SDS011;35336;48.400;10.886;2023-05-23T00:14:54;10.40;;;6.90;;
49450;SDS011;35336;48.400;10.886;2023-05-23T00:15:10;12.80;;;7.00;;
49450;SDS011;35336;48.400;10.886;2023-05-23T00:15:25;13.00;;;6.97;;
49450;SDS011;35336;48.400;10.886;2023-05-23T00:15:41;9.23;;;7.18;;
49450;SDS011;35336;48.400;10.886;2023-05-23T00:15:56;10.33;;;7.13;;
49450;SDS011;35336;48.400;10.886;2023-05-23T00:16:11;11.23;;;7.15;;
49450;SDS011;35336;48.400;10.886;2023-05-23T00:16:27;11.47;;;7.33;;
49450;SDS011;35336;48.400;10.886;2023-05-23T00:16:43;11.50;;;7.17;;
49450;SDS011;35336;48.400;10.886;2023-05-23T00:16:59;10.90;;;6.93;;
49450;SDS011;35336;48.400;10.886;2023-05-23T00:17:14;10.18;;;7.20;;
49450;SDS011;35336;48.400;10.886;2023-05-23T00:17:30;10.57;;;7.37;;
49450;SDS011;35336;48.400;10.886;2023-05-23T00:17:45;10.87;;;7.37;;
49450;SDS011;35336;48.400;10.886;2023-05-23T00:18:00;9.90;;;7.10;;
49450;SDS011;35336;48.400;10.886;2023-05-23T00:18:16;11.55;;;6.97;;
49450;SDS011;35336;48.400;10.886;2023-05-23T00:18:31;13.87;;;7.47;;
49450;SDS011;35336;48.400;10.886;2023-05-23T00:18:46;9.70;;;7.17;;
49450;SDS011;35336;48.400;10.886;2023-05-23T00:19:02;9.27;;;6.70;;
49450;SDS011;35336;48.400;10.886;2023-05-23T00:19:17;10.10;;;7.10;;
49450;SDS011;35336;48.400;10.886;2023-05-23T00:19:33;10.93;;;7.55;;
49450;SDS011;35336;48.400;10.886;2023-05-23T00:19:48;11.13;;;7.73;;
49450;SDS011;35336;48.400;10.886;2023-05-23T00:20:04;9.30;;;7.50;;
49450;SDS011;35336;48.400;10.886;2023-05-23T00:20:20;9.40;;;7.25;;
49450;SDS011;35336;48.400;10.886;2023-05-23T00:20:36;8.95;;;7.28;;
49450;SDS011;35336;48.400;10.886;2023-05-23T00:20:52;9.00;;;7.18;;
49450;SDS011;35336;48.400;10.886;2023-05-23T00:21:08;10.57;;;7.40;;
49450;SDS011;35336;48.400;10.886;2023-05-23T00:21:23;11.60;;;7.50;;
49450;SDS011;35336;48.400;10.886;2023-05-23T00:21:38;9.30;;;7.13;;
49450;SDS011;35336;48.400;10.886;2023-05-23T00:21:54;10.75;;;7.30;;
49450;SDS011;35336;48.400;10.886;2023-05-23T00:22:11;12.73;;;7.40;;
49450;SDS011;35336;48.400;10.886;2023-05-23T00:22:26;11.15;;;7.50;;
49450;SDS011;35336;48.400;10.886;2023-05-23T00:22:41;12.13;;;8.00;;
49450;SDS011;35336;48.400;10.886;2023-05-23T00:22:57;10.30;;;7.57;;
49450;SDS011;35336;48.400;10.886;2023-05-23T00:23:12;8.40;;;7.43;;
49450;SDS011;35336;48.400;10.886;2023-05-23T00:23:28;9.63;;;7.80;;
49450;SDS011;35336;48.400;10.886;2023-05-23T00:23:43;8.90;;;7.57;;
49450;SDS011;35336;48.400;10.886;2023-05-23T00:23:58;9.23;;;7.50;;
49450;SDS011;35336;48.400;10.886;2023-05-23T00:24:14;10.02;;;7.53;;
49450;SDS011;35336;48.400;10.886;2023-05-23T00:24:29;10.00;;;7.73;;
49450;SDS011;35336;48.400;10.886;2023-05-23T00:24:44;10.03;;;7.80;;
49450;SDS011;35336;48.400;10.886;2023-05-23T00:25:00;12.00;;;8.07;;
49450;SDS011;35336;48.400;10.886;2023-05-23T00:25:15;13.37;;;7.83;;
49450;SDS011;35336;48.400;10.886;2023-05-23T00:25:31;9.93;;;7.50;;
49450;SDS011;35336;48.400;10.886;2023-05-23T00:25:46;9.95;;;7.55;;
49450;SDS011;35336;48.400;10.886;2023-05-23T00:26:01;12.80;;;7.53;;
49450;SDS011;35336;48.400;10.886;2023-05-23T00:26:17;11.20;;;7.53;;
49450;SDS011;35336;48.400;10.886;2023-05-23T00:26:32;11.37;;;7.40;;
49450;SDS011;35336;48.400;10.886;2023-05-23T00:26:48;11.53;;;7.83;;
49450;SDS011;35336;48.400;10.886;2023-05-23T00:27:03;10.57;;;7.95;;
49450;SDS011;35336;48.400;10.886;2023-05-23T00:27:19;11.13;;;7.70;;
49450;SDS011;35336;48.400;10.886;2023-05-23T00:27:34;10.52;;;7.40;;
49450;SDS011;35336;48.400;10.886;2023-05-23T00:27:50;9.45;;;7.15;;
49450;SDS011;35336;48.400;10.886;2023-05-23T00:28:05;10.00;;;7.67;;
49450;SDS011;35336;48.400;10.886;2023-05-23T00:28:21;10.05;;;7.65;;
49450;SDS011;35336;48.400;10.886;2023-05-23T00:28:36;9.53;;;7.47;;
49450;SDS011;35336;48.400;10.886;2023-05-23T00:28:52;9.02;;;7.55;;
49450;SDS011;35336;48.400;10.886;2023-05-23T00:29:07;9.77;;;7.63;;
49450;SDS011;35336;48.400;10.886;2023-05-23T00:29:22;10.53;;;7.40;;
49450;SDS011;35336;48.400;10.886;2023-05-23T00:29:38;8.87;;;7.20;;
49450;SDS011;35336;48.400;10.886;2023-05-23T00:29:53;8.90;;;7.20;;
49450;SDS011;35336;48.400;10.886;2023-05-23T00:30:08;8.80;;;7.10;;
49450;SDS011;35336;48.400;10.886;2023-05-23T00:30:24;8.15;;;7.07;;
49450;SDS011;35336;48.400;10.886;2023-05-23T00:30:39;8.50;;;7.03;;
49450;SDS011;35336;48.400;10.886;2023-05-23T00:30:54;9.73;;;7.27;;
49450;SDS011;35336;48.400;10.886;2023-05-23T00:31:10;11.25;;;7.90;;
49450;SDS011;35336;48.400;10.886;2023-05-23T00:31:25;10.43;;;7.97;;
49450;SDS011;35336;48.400;10.886;2023-05-23T00:31:41;9.87;;;7.30;;
49450;SDS011;35336;48.400;10.886;2023-05-23T00:31:57;9.57;;;7.65;;
49450;SDS011;35336;48.400;10.886;2023-05-23T00:32:12;9.45;;;7.50;;
49450;SDS011;35336;48.400;10.886;2023-05-23T00:32:27;10.37;;;7.23;;
49450;SDS011;35336;48.400;10.886;2023-05-23T00:32:42;11.47;;;7.63;;
49450;SDS011;35336;48.400;10.886;2023-05-23T00:32:58;12.83;;;7.60;;
49450;SDS011;35336;48.400;10.886;2023-05-23T00:33:15;11.68;;;7.55;;
49450;SDS011;35336;48.400;10.886;2023-05-23T00:33:30;12.80;;;7.50;;
49450;SDS011;35336;48.400;10.886;2023-05-23T00:33:46;14.82;;;7.38;;
49450;SDS011;35336;48.400;10.886;2023-05-23T00:34:01;10.67;;;6.90;;
49450;SDS011;35336;48.400;10.886;2023-05-23T00:34:17;9.40;;;6.97;;
49450;SDS011;35336;48.400;10.886;2023-05-23T00:34:32;10.85;;;7.32;;
49450;SDS011;35336;48.400;10.886;2023-05-23T00:34:47;12.83;;;7.50;;
49450;SDS011;35336;48.400;10.886;2023-05-23T00:35:03;13.50;;;7.63;;
49450;SDS011;35336;48.400;10.886;2023-05-23T00:35:21;12.70;;;7.80;;
49450;SDS011;35336;48.400;10.886;2023-05-23T00:35:37;10.80;;;7.65;;
49450;SDS011;35336;48.400;10.886;2023-05-23T00:35:52;10.98;;;7.70;;
49450;SDS011;35336;48.400;10.886;2023-05-23T00:36:07;10.80;;;7.57;;
49450;SDS011;35336;48.400;10.886;2023-05-23T00:36:22;9.23;;;7.47;;
49450;SDS011;35336;48.400;10.886;2023-05-23T00:36:38;9.93;;;7.65;;
49450;SDS011;35336;48.400;10.886;2023-05-23T00:36:53;11.40;;;7.90;;
49450;SDS011;35336;48.400;10.886;2023-05-23T00:37:08;10.63;;;7.67;;
49450;SDS011;35336;48.400;10.886;2023-05-23T00:37:24;9.97;;;8.07;;
49450;SDS011;35336;48.400;10.886;2023-05-23T00:37:39;10.27;;;8.32;;
49450;SDS011;35336;48.400;10.886;2023-05-23T00:37:54;8.53;;;7.67;;
49450;SDS011;35336;48.400;10.886;2023-05-23T00:38:10;10.33;;;7.70;;
49450;SDS011;35336;48.400;10.886;2023-05-23T00:38:25;11.65;;;7.63;;
49450;SDS011;35336;48.400;10.886;2023-05-23T00:38:40;9.80;;;7.70;;
49450;SDS011;35336;48.400;10.886;2023-05-23T00:38:56;9.63;;;7.83;;
49450;SDS011;35336;48.400;10.886;2023-05-23T00:39:11;9.73;;;7.63;;
49450;SDS011;35336;48.400;10.886;2023-05-23T00:39:27;9.93;;;7.77;;
49450;SDS011;35336;48.400;10.886;2023-05-23T00:39:42;10.90;;;7.50;;
49450;SDS011;35336;48.400;10.886;2023-05-23T00:39:57;10.05;;;7.22;;
49450;SDS011;35336;48.400;10.886;2023-05-23T00:40:12;9.13;;;7.53;;
49450;SDS011;35336;48.400;10.886;2023-05-23T00:40:28;9.57;;;7.87;;
49450;SDS011;35336;48.400;10.886;2023-05-23T00:40:43;12.33;;;7.60;;
49450;SDS011;35336;48.400;10.886;2023-05-23T00:40:58;14.52;;;7.95;;
49450;SDS011;35336;48.400;10.886;2023-05-23T00:41:14;11.87;;;8.17;;
49450;SDS011;35336;48.400;10.886;2023-05-23T00:41:29;12.68;;;7.97;;
49450;SDS011;35336;48.400;10.886;2023-05-23T00:41:48;12.10;;;7.70;;
49450;SDS011;35336;48.400;10.886;2023-05-23T00:42:04;11.05;;;6.95;;
49450;SDS011;35336;48.400;10.886;2023-05-23T00:42:20;10.50;;;7.00;;
49450;SDS011;35336;48.400;10.886;2023-05-23T00:42:35;8.77;;;7.55;;
49450;SDS011;35336;48.400;10.886;2023-05-23T00:42:50;9.50;;;7.73;;
49450;SDS011;35336;48.400;10.886;2023-05-23T00:43:06;10.33;;;7.67;;
49450;SDS011;35336;48.400;10.886;2023-05-23T00:43:21;11.13;;;8.27;;
49450;SDS011;35336;48.400;10.886;2023-05-23T00:43:36;11.07;;;8.10;;
49450;SDS011;35336;48.400;10.886;2023-05-23T00:43:52;11.93;;;7.87;;
49450;SDS011;35336;48.400;10.886;2023-05-23T00:44:07;13.13;;;7.82;;
49450;SDS011;35336;48.400;10.886;2023-05-23T00:44:22;12.03;;;7.40;;
49450;SDS011;35336;48.400;10.886;2023-05-23T00:44:38;14.70;;;7.47;;
49450;SDS011;35336;48.400;10.886;2023-05-23T00:44:53;17.00;;;7.90;;
49450;SDS011;35336;48.400;10.886;2023-05-23T00:45:08;13.27;;;8.15;;
49450;SDS011;35336;48.400;10.886;2023-05-23T00:45:24;9.77;;;7.90;;
49450;SDS011;35336;48.400;10.886;2023-05-23T00:45:39;9.80;;;7.93;;
49450;SDS011;35336;48.400;10.886;2023-05-23T00:45:55;9.90;;;7.70;;
49450;SDS011;35336;48.400;10.886;2023-05-23T00:46:10;9.35;;;7.57;;
49450;SDS011;35336;48.400;10.886;2023-05-23T00:46:26;8.50;;;7.60;;
49450;SDS011;35336;48.400;10.886;2023-05-23T00:46:42;10.70;;;7.40;;
49450;SDS011;35336;48.400;10.886;2023-05-23T00:46:59;12.98;;;7.80;;
49450;SDS011;35336;48.400;10.886;2023-05-23T00:47:14;10.97;;;8.17;;
49450;SDS011;35336;48.400;10.886;2023-05-23T00:47:29;9.20;;;8.02;;
49450;SDS011;35336;48.400;10.886;2023-05-23T00:47:45;9.80;;;7.63;;
49450;SDS011;35336;48.400;10.886;2023-05-23T00:48:02;11.00;;;7.43;;
49450;SDS011;35336;48.400;10.886;2023-05-23T00:48:18;11.30;;;7.70;;
49450;SDS011;35336;48.400;10.886;2023-05-23T00:48:34;11.47;;;8.07;;
49450;SDS011;35336;48.400;10.886;2023-05-23T00:48:49;11.40;;;7.70;;
49450;SDS011;35336;48.400;10.886;2023-05-23T00:49:04;10.00;;;7.55;;
49450;SDS011;35336;48.400;10.886;2023-05-23T00:49:20;8.75;;;7.72;;
49450;SDS011;35336;48.400;10.886;2023-05-23T00:49:36;10.73;;;7.83;;
49450;SDS011;35336;48.400;10.886;2023-05-23T00:49:51;13.95;;;7.90;;
49450;SDS011;35336;48.400;10.886;2023-05-23T00:50:07;12.23;;;7.87;;
49450;SDS011;35336;48.400;10.886;2023-05-23T00:50:25;11.27;;;7.45;;
49450;SDS011;35336;48.400;10.886;2023-05-23T00:50:42;9.75;;;7.30;;
49450;SDS011;35336;48.400;10.886;2023-05-23T00:50:57;9.07;;;7.70;;
49450;SDS011;35336;48.400;10.886;2023-05-23T00:51:13;9.03;;;7.73;;
49450;SDS011;35336;48.400;10.886;2023-05-23T00:51:28;10.27;;;7.80;;
49450;SDS011;35336;48.400;10.886;2023-05-23T00:51:43;11.10;;;7.75;;
49450;SDS011;35336;48.400;10.886;2023-05-23T00:51:59;9.85;;;7.95;;
49450;SDS011;35336;48.400;10.886;2023-05-23T00:52:15;10.10;;;8.47;;
49450;SDS011;35336;48.400;10.886;2023-05-23T00:52:31;9.75;;;8.48;;
49450;SDS011;35336;48.400;10.886;2023-05-23T00:52:47;9.13;;;8.02;;
49450;SDS011;35336;48.400;10.886;2023-05-23T00:53:03;10.48;;;8.10;;
49450;SDS011;35336;48.400;10.886;2023-05-23T00:53:19;11.60;;;7.97;;
49450;SDS011;35336;48.400;10.886;2023-05-23T00:53:35;11.75;;;7.65;;
49450;SDS011;35336;48.400;10.886;2023-05-23T00:53:51;10.50;;;7.70;;
49450;SDS011;35336;48.400;10.886;2023-05-23T00:54:06;11.48;;;7.90;;
49450;SDS011;35336;48.400;10.886;2023-05-23T00:54:28;13.17;;;8.20;;
49450;SDS011;35336;48.400;10.886;2023-05-23T00:54:44;11.05;;;8.02;;
49450;SDS011;35336;48.400;10.886;2023-05-23T00:55:00;10.37;;;8.00;;
49450;SDS011;35336;48.400;10.886;2023-05-23T00:55:15;10.02;;;7.95;;
49450;SDS011;35336;48.400;10.886;2023-05-23T00:55:31;9.60;;;8.10;;
49450;SDS011;35336;48.400;10.886;2023-05-23T00:55:46;10.15;;;8.18;;
49450;SDS011;35336;48.400;10.886;2023-05-23T00:56:02;9.57;;;8.00;;
49450;SDS011;35336;48.400;10.886;2023-05-23T00:56:17;10.00;;;7.75;;
49450;SDS011;35336;48.400;10.886;2023-05-23T00:56:33;11.47;;;8.20;;
49450;SDS011;35336;48.400;10.886;2023-05-23T00:56:48;12.10;;;8.20;;
49450;SDS011;35336;48.400;10.886;2023-05-23T00:57:04;11.60;;;7.88;;
49450;SDS011;35336;48.400;10.886;2023-05-23T00:57:19;12.48;;;8.30;;
49450;SDS011;35336;48.400;10.886;2023-05-23T00:57:35;13.03;;;8.13;;
49450;SDS011;35336;48.400;10.886;2023-05-23T00:57:52;13.63;;;8.00;;
49450;SDS011;35336;48.400;10.886;2023-05-23T00:58:08;10.32;;;8.15;;
49450;SDS011;35336;48.400;10.886;2023-05-23T00:58:25;9.15;;;8.25;;
49450;SDS011;35336;48.400;10.886;2023-05-23T00:58:40;11.97;;;8.07;;
49450;SDS011;35336;48.400;10.886;2023-05-23T00:58:55;11.95;;;8.23;;
49450;SDS011;35336;48.400;10.886;2023-05-23T00:59:12;9.02;;;8.13;;
49450;SDS011;35336;48.400;10.886;2023-05-23T00:59:27;11.65;;;8.25;;
49450;SDS011;35336;48.400;10.886;2023-05-23T00:59:44;16.88;;;8.85;;
49450;SDS011;35336;48.400;10.886;2023-05-23T01:00:00;14.88;;;8.57;;
49450;SDS011;35336;48.400;10.886;2023-05-23T01:00:15;13.77;;;9.23;;
49450;SDS011;35336;48.400;10.886;2023-05-23T01:00:31;14.83;;;9.20;;
49450;SDS011;35336;48.400;10.886;2023-05-23T01:00:46;12.52;;;8.70;;
49450;SDS011;35336;48.400;10.886;2023-05-23T01:01:02;12.80;;;8.37;;
49450;SDS011;35336;48.400;10.886;2023-05-23T01:01:17;12.97;;;8.03;;
49450;SDS011;35336;48.400;10.886;2023-05-23T01:01:33;10.07;;;8.02;;
49450;SDS011;35336;48.400;10.886;2023-05-23T01:01:49;9.13;;;7.75;;
49450;SDS011;35336;48.400;10.886;2023-05-23T01:02:05;13.70;;;8.70;;
49450;SDS011;35336;48.400;10.886;2023-05-23T01:02:20;13.87;;;8.87;;
49450;SDS011;35336;48.400;10.886;2023-05-23T01:02:38;10.25;;;8.35;;
49450;SDS011;35336;48.400;10.886;2023-05-23T01:02:57;10.73;;;8.38;;
49450;SDS011;35336;48.400;10.886;2023-05-23T01:03:12;10.13;;;7.63;;
49450;SDS011;35336;48.400;10.886;2023-05-23T01:03:27;9.68;;;8.10;;
49450;SDS011;35336;48.400;10.886;2023-05-23T01:03:43;12.00;;;8.87;;
49450;SDS011;35336;48.400;10.886;2023-05-23T01:03:58;11.43;;;8.33;;
49450;SDS011;35336;48.400;10.886;2023-05-23T01:04:13;10.48;;;8.10;;
49450;SDS011;35336;48.400;10.886;2023-05-23T01:04:29;11.10;;;8.20;;
49450;SDS011;35336;48.400;10.886;2023-05-23T01:04:45;9.52;;;8.13;;
49450;SDS011;35336;48.400;10.886;2023-05-23T01:05:01;9.32;;;8.43;;
49450;SDS011;35336;48.400;10.886;2023-05-23T01:05:17;10.00;;;8.63;;
49450;SDS011;35336;48.400;10.886;2023-05-23T01:05:34;9.48;;;7.88;;
49450;SDS011;35336;48.400;10.886;2023-05-23T01:05:49;9.30;;;8.30;;
49450;SDS011;35336;48.400;10.886;2023-05-23T01:06:04;14.82;;;9.13;;
49450;SDS011;35336;48.400;10.886;2023-05-23T01:06:20;16.17;;;8.83;;
49450;SDS011;35336;48.400;10.886;2023-05-23T01:06:35;13.33;;;8.77;;
49450;SDS011;35336;48.400;10.886;2023-05-23T01:06:54;13.93;;;8.73;;
49450;SDS011;35336;48.400;10.886;2023-05-23T01:07:09;12.55;;;8.35;;
49450;SDS011;35336;48.400;10.886;2023-05-23T01:07:25;12.67;;;8.20;;
49450;SDS011;35336;48.400;10.886;2023-05-23T01:07:40;10.80;;;8.13;;
49450;SDS011;35336;48.400;10.886;2023-05-23T01:07:55;9.40;;;8.27;;
49450;SDS011;35336;48.400;10.886;2023-05-23T01:08:11;11.23;;;8.77;;
49450;SDS011;35336;48.400;10.886;2023-05-23T01:08:27;12.07;;;8.97;;
49450;SDS011;35336;48.400;10.886;2023-05-23T01:08:43;12.18;;;8.65;;
49450;SDS011;35336;48.400;10.886;2023-05-23T01:08:58;10.95;;;8.85;;
49450;SDS011;35336;48.400;10.886;2023-05-23T01:09:14;9.83;;;8.83;;
49450;SDS011;35336;48.400;10.886;2023-05-23T01:09:31;11.07;;;8.48;;
49450;SDS011;35336;48.400;10.886;2023-05-23T01:09:46;12.00;;;8.60;;
49450;SDS011;35336;48.400;10.886;2023-05-23T01:10:02;11.20;;;8.27;;
49450;SDS011;35336;48.400;10.886;2023-05-23T01:10:19;12.40;;;8.13;;
49450;SDS011;35336;48.400;10.886;2023-05-23T01:10:37;11.68;;;8.65;;
49450;SDS011;35336;48.400;10.886;2023-05-23T01:10:52;14.93;;;8.60;;
49450;SDS011;35336;48.400;10.886;2023-05-23T01:11:11;14.10;;;8.70;;
49450;SDS011;35336;48.400;10.886;2023-05-23T01:11:35;13.73;;;9.52;;
49450;SDS011;35336;48.400;10.886;2023-05-23T01:12:02;11.00;;;8.68;;
49450;SDS011;35336;48.400;10.886;2023-05-23T01:14:04;9.10;;;8.10;;
49450;SDS011;35336;48.400;10.886;2023-05-23T01:14:43;11.70;;;9.00;;
49450;SDS011;35336;48.400;10.886;2023-05-23T01:15:07;9.60;;;8.63;;
49450;SDS011;35336;48.400;10.886;2023-05-23T01:16:01;10.68;;;8.25;;
49450;SDS011;35336;48.400;10.886;2023-05-23T01:16:22;10.85;;;8.35;;
49450;SDS011;35336;48.400;10.886;2023-05-23T01:16:42;10.80;;;8.63;;
49450;SDS011;35336;48.400;10.886;2023-05-23T01:17:07;9.63;;;8.25;;
49450;SDS011;35336;48.400;10.886;2023-05-23T01:18:37;11.02;;;9.07;;
49450;SDS011;35336;48.400;10.886;2023-05-23T01:20:08;12.35;;;8.43;;
49450;SDS011;35336;48.400;10.886;2023-05-23T01:20:30;10.38;;;8.68;;
49450;SDS011;35336;48.400;10.886;2023-05-23T01:20:56;12.07;;;8.90;;
49450;SDS011;35336;48.400;10.886;2023-05-23T01:21:16;9.75;;;8.75;;
49450;SDS011;35336;48.400;10.886;2023-05-23T01:21:32;9.75;;;8.70;;
49450;SDS011;35336;48.400;10.886;2023-05-23T01:21:51;10.60;;;8.43;;
49450;SDS011;35336;48.400;10.886;2023-05-23T01:22:15;13.73;;;8.65;;
49450;SDS011;35336;48.400;10.886;2023-05-23T01:23:22;11.48;;;8.85;;
49450;SDS011;35336;48.400;10.886;2023-05-23T01:25:20;11.15;;;8.65;;
49450;SDS011;35336;48.400;10.886;2023-05-23T01:27:52;10.10;;;8.10;;
49450;SDS011;35336;48.400;10.886;2023-05-23T01:28:10;11.35;;;9.13;;
49450;SDS011;35336;48.400;10.886;2023-05-23T01:28:31;12.75;;;8.73;;
49450;SDS011;35336;48.400;10.886;2023-05-23T01:28:52;12.90;;;8.77;;
49450;SDS011;35336;48.400;10.886;2023-05-23T01:29:10;10.68;;;8.95;;
49450;SDS011;35336;48.400;10.886;2023-05-23T01:29:33;9.70;;;8.77;;
49450;SDS011;35336;48.400;10.886;2023-05-23T01:29:53;12.65;;;8.75;;
49450;SDS011;35336;48.400;10.886;2023-05-23T01:30:11;11.55;;;8.43;;
49450;SDS011;35336;48.400;10.886;2023-05-23T01:30:29;10.68;;;8.50;;
49450;SDS011;35336;48.400;10.886;2023-05-23T01:30:46;9.77;;;8.63;;
49450;SDS011;35336;48.400;10.886;2023-05-23T01:31:05;10.57;;;9.30;;
49450;SDS011;35336;48.400;10.886;2023-05-23T01:31:24;12.50;;;9.15;;
49450;SDS011;35336;48.400;10.886;2023-05-23T01:31:44;11.77;;;8.75;;
49450;SDS011;35336;48.400;10.886;2023-05-23T01:32:04;10.85;;;9.10;;
49450;SDS011;35336;48.400;10.886;2023-05-23T01:32:24;12.00;;;9.38;;
49450;SDS011;35336;48.400;10.886;2023-05-23T01:32:41;12.05;;;9.38;;
49450;SDS011;35336;48.400;10.886;2023-05-23T01:32:57;12.77;;;8.88;;
49450;SDS011;35336;48.400;10.886;2023-05-23T01:33:14;12.77;;;8.68;;
49450;SDS011;35336;48.400;10.886;2023-05-23T01:33:31;11.48;;;8.55;;
49450;SDS011;35336;48.400;10.886;2023-05-23T01:33:46;11.25;;;8.38;;
49450;SDS011;35336;48.400;10.886;2023-05-23T01:34:03;11.68;;;9.30;;
49450;SDS011;35336;48.400;10.886;2023-05-23T01:34:19;11.05;;;9.55;;
49450;SDS011;35336;48.400;10.886;2023-05-23T01:34:35;10.63;;;9.25;;
49450;SDS011;35336;48.400;10.886;2023-05-23T01:34:52;11.35;;;9.27;;
49450;SDS011;35336;48.400;10.886;2023-05-23T01:35:08;10.73;;;8.65;;
49450;SDS011;35336;48.400;10.886;2023-05-23T01:35:25;11.15;;;8.98;;
49450;SDS011;35336;48.400;10.886;2023-05-23T01:35:41;12.48;;;9.57;;
49450;SDS011;35336;48.400;10.886;2023-05-23T01:35:58;10.90;;;9.45;;
49450;SDS011;35336;48.400;10.886;2023-05-23T01:36:16;12.00;;;9.38;;
49450;SDS011;35336;48.400;10.886;2023-05-23T01:36:32;13.13;;;9.33;;
49450;SDS011;35336;48.400;10.886;2023-05-23T01:36:48;12.40;;;9.45;;
49450;SDS011;35336;48.400;10.886;2023-05-23T01:37:10;10.25;;;9.18;;
49450;SDS011;35336;48.400;10.886;2023-05-23T01:37:26;13.00;;;9.23;;
49450;SDS011;35336;48.400;10.886;2023-05-23T01:37:41;13.65;;;9.05;;
49450;SDS011;35336;48.400;10.886;2023-05-23T01:37:58;10.10;;;8.60;;
49450;SDS011;35336;48.400;10.886;2023-05-23T01:38:13;9.53;;;8.63;;
49450;SDS011;35336;48.400;10.886;2023-05-23T01:38:29;10.53;;;8.93;;
49450;SDS011;35336;48.400;10.886;2023-05-23T01:38:44;10.93;;;9.13;;
49450;SDS011;35336;48.400;10.886;2023-05-23T01:39:00;10.10;;;8.93;;
49450;SDS011;35336;48.400;10.886;2023-05-23T01:39:15;12.60;;;9.02;;
49450;SDS011;35336;48.400;10.886;2023-05-23T01:39:31;13.43;;;9.40;;
49450;SDS011;35336;48.400;10.886;2023-05-23T01:39:46;11.80;;;9.50;;
49450;SDS011;35336;48.400;10.886;2023-05-23T01:40:01;10.15;;;8.95;;
49450;SDS011;35336;48.400;10.886;2023-05-23T01:40:17;10.77;;;8.60;;
49450;SDS011;35336;48.400;10.886;2023-05-23T01:40:32;15.30;;;8.82;;
49450;SDS011;35336;48.400;10.886;2023-05-23T01:40:47;14.87;;;9.03;;
49450;SDS011;35336;48.400;10.886;2023-05-23T01:41:03;13.10;;;9.23;;
49450;SDS011;35336;48.400;10.886;2023-05-23T01:41:18;14.43;;;9.30;;
49450;SDS011;35336;48.400;10.886;2023-05-23T01:41:33;12.43;;;9.30;;
49450;SDS011;35336;48.400;10.886;2023-05-23T01:41:49;11.13;;;9.27;;
49450;SDS011;35336;48.400;10.886;2023-05-23T01:42:06;11.77;;;9.20;;
49450;SDS011;35336;48.400;10.886;2023-05-23T01:42:22;10.80;;;9.00;;
49450;SDS011;35336;48.400;10.886;2023-05-23T01:42:38;10.67;;;9.30;;
49450;SDS011;35336;48.400;10.886;2023-05-23T01:42:53;11.82;;;9.60;;
49450;SDS011;35336;48.400;10.886;2023-05-23T01:43:10;12.43;;;8.75;;
49450;SDS011;35336;48.400;10.886;2023-05-23T01:43:26;12.00;;;8.83;;
49450;SDS011;35336;48.400;10.886;2023-05-23T01:43:41;11.63;;;9.57;;
49450;SDS011;35336;48.400;10.886;2023-05-23T01:43:57;12.37;;;9.33;;
49450;SDS011;35336;48.400;10.886;2023-05-23T01:44:12;12.67;;;9.00;;
49450;SDS011;35336;48.400;10.886;2023-05-23T01:44:27;12.00;;;9.07;;
49450;SDS011;35336;48.400;10.886;2023-05-23T01:44:44;10.57;;;9.10;;